createdAt,value
2018-03-26T00:00:56.402Z,23.85
2018-03-26T00:03:23.285Z,28.35
2018-03-26T00:05:50.087Z,24.52
2018-03-26T00:08:16.900Z,24.73
2018-03-26T00:10:43.686Z,25.33
2018-03-26T00:13:10.433Z,25.60
2018-03-26T00:15:37.144Z,25.88
2018-03-26T00:18:03.980Z,26.15
2018-03-26T00:20:30.702Z,24.02
2018-03-26T00:22:57.473Z,25.52
2018-03-26T00:25:24.257Z,22.75
2018-03-26T00:27:51.058Z,23.65
2018-03-26T00:30:17.904Z,25.42
2018-03-26T00:32:44.770Z,27.20
2018-03-26T00:35:11.618Z,23.77
2018-03-26T00:37:38.452Z,24.30
2018-03-26T00:40:05.224Z,25.12
2018-03-26T00:42:31.989Z,26.20
2018-03-26T00:44:58.765Z,26.73
2018-03-26T00:47:25.551Z,26.25
2018-03-26T00:49:52.307Z,27.20
2018-03-26T00:52:19.077Z,26.73
2018-03-26T00:54:45.876Z,25.23
2018-03-26T00:57:12.639Z,24.85
2018-03-26T00:59:39.370Z,25.42
2018-03-26T01:02:06.056Z,26.70
2018-03-26T01:04:32.904Z,26.35
2018-03-26T01:06:59.646Z,24.37
2018-03-26T01:09:26.352Z,25.35
2018-03-26T01:11:53.116Z,28.75
2018-03-26T01:14:19.844Z,25.60
2018-03-26T01:16:46.597Z,28.15
2018-03-26T01:19:13.446Z,26.55
2018-03-26T01:21:40.191Z,26.65
2018-03-26T01:24:06.938Z,29.15
2018-03-26T01:26:33.653Z,26.12
2018-03-26T01:29:00.520Z,28.02
2018-03-26T01:31:27.301Z,26.70
2018-03-26T01:33:54.078Z,28.60
2018-03-26T01:36:20.878Z,29.33
2018-03-26T01:38:47.621Z,35.83
2018-03-26T01:41:14.513Z,33.10
2018-03-26T01:43:41.390Z,33.25
2018-03-26T01:46:08.224Z,31.40
2018-03-26T01:48:35.031Z,33.17
2018-03-26T01:51:01.762Z,32.72
2018-03-26T01:53:28.555Z,33.83
2018-03-26T01:55:55.385Z,35.95
2018-03-26T01:58:22.222Z,39.45
2018-03-26T02:00:48.989Z,41.50
2018-03-26T02:03:15.987Z,40.78
2018-03-26T02:05:43.092Z,41.42
2018-03-26T02:08:09.882Z,41.90
2018-03-26T02:10:36.634Z,38.92
2018-03-26T02:13:03.403Z,40.63
2018-03-26T02:15:30.125Z,37.03
2018-03-26T02:17:56.847Z,39.03
2018-03-26T02:20:23.580Z,40.92
2018-03-26T02:22:50.340Z,39.22
2018-03-26T02:25:17.063Z,38.53
2018-03-26T02:27:43.834Z,39.67
2018-03-26T02:30:10.618Z,37.97
2018-03-26T02:32:37.450Z,35.05
2018-03-26T02:35:04.194Z,34.70
2018-03-26T02:37:30.963Z,35.85
2018-03-26T02:39:57.958Z,37.33
2018-03-26T02:42:24.801Z,40.22
2018-03-26T02:44:51.639Z,38.47
2018-03-26T02:47:18.410Z,40.42
2018-03-26T02:49:45.173Z,38.08
2018-03-26T02:52:11.955Z,38.00
2018-03-26T02:54:38.775Z,37.08
2018-03-26T02:57:05.577Z,38.05
2018-03-26T02:59:32.442Z,38.65
2018-03-26T03:01:59.170Z,38.88
2018-03-26T03:04:25.935Z,38.10
2018-03-26T03:06:52.798Z,39.35
2018-03-26T03:09:19.555Z,34.72
2018-03-26T03:11:46.346Z,35.33
2018-03-26T03:14:13.106Z,34.50
2018-03-26T03:16:39.911Z,33.83
2018-03-26T03:19:06.684Z,34.20
2018-03-26T03:21:33.480Z,32.38
2018-03-26T03:24:00.325Z,34.13
2018-03-26T03:26:27.018Z,33.22
2018-03-26T03:28:53.790Z,33.53
2018-03-26T03:31:20.504Z,36.85
2018-03-26T03:33:47.191Z,35.38
2018-03-26T03:36:13.910Z,35.33
2018-03-26T03:38:40.601Z,37.53
2018-03-26T03:41:07.296Z,36.65
2018-03-26T03:43:34.010Z,37.03
2018-03-26T03:46:00.757Z,36.40
2018-03-26T03:48:27.444Z,36.45
2018-03-26T03:50:54.144Z,37.80
2018-03-26T03:53:20.852Z,39.45
2018-03-26T03:55:47.544Z,35.67
2018-03-26T03:58:14.271Z,38.97
2018-03-26T04:00:40.955Z,39.53
2018-03-26T04:03:07.645Z,39.47
2018-03-26T04:05:34.340Z,39.28
2018-03-26T04:08:01.043Z,38.15
2018-03-26T04:10:27.728Z,41.13
2018-03-26T04:12:54.436Z,39.47
2018-03-26T04:15:21.129Z,40.03
2018-03-26T04:17:47.824Z,41.90
2018-03-26T04:20:18.196Z,42.05
2018-03-26T04:22:44.904Z,41.78
2018-03-26T04:25:11.613Z,44.10
2018-03-26T04:27:38.296Z,40.03
2018-03-26T04:30:05.002Z,41.50
2018-03-26T04:32:31.700Z,42.42
2018-03-26T04:34:58.392Z,41.65
2018-03-26T04:37:25.117Z,44.28
2018-03-26T04:39:51.795Z,41.88
2018-03-26T04:42:18.481Z,39.38
2018-03-26T04:44:45.171Z,41.55
2018-03-26T04:47:11.870Z,39.28
2018-03-26T04:49:38.585Z,40.85
2018-03-26T04:52:05.313Z,39.95
2018-03-26T04:54:32.069Z,42.28
2018-03-26T04:56:58.774Z,43.72
2018-03-26T04:59:25.461Z,40.17
2018-03-26T05:01:52.158Z,44.03
2018-03-26T05:04:18.845Z,43.83
2018-03-26T05:06:45.560Z,44.60
2018-03-26T05:09:12.276Z,46.45
2018-03-26T05:11:38.983Z,44.50
2018-03-26T05:14:05.678Z,42.85
2018-03-26T05:16:32.376Z,46.65
2018-03-26T05:18:59.089Z,46.05
2018-03-26T05:21:25.776Z,45.42
2018-03-26T05:23:52.492Z,45.58
2018-03-26T05:26:19.178Z,47.28
2018-03-26T05:28:45.886Z,47.88
2018-03-26T05:31:12.643Z,47.95
2018-03-26T05:33:39.289Z,45.10
2018-03-26T05:36:06.015Z,47.15
2018-03-26T05:38:32.693Z,42.83
2018-03-26T05:40:59.386Z,47.42
2018-03-26T05:43:26.089Z,44.28
2018-03-26T05:45:52.821Z,43.50
2018-03-26T05:48:19.548Z,44.95
2018-03-26T05:50:46.242Z,42.85
2018-03-26T05:53:12.956Z,43.47
2018-03-26T05:55:39.652Z,45.85
2018-03-26T05:58:06.339Z,43.28
2018-03-26T06:00:33.048Z,44.28
2018-03-26T06:02:59.733Z,45.95
2018-03-26T06:05:26.451Z,40.55
2018-03-26T06:07:53.145Z,41.42
2018-03-26T06:10:19.826Z,42.10
2018-03-26T06:12:46.505Z,46.45
2018-03-26T06:15:13.198Z,46.37
2018-03-26T06:17:39.881Z,41.60
2018-03-26T06:20:06.593Z,41.78
2018-03-26T06:22:33.289Z,44.28
2018-03-26T06:24:59.985Z,40.70
2018-03-26T06:27:26.693Z,46.13
2018-03-26T06:29:53.388Z,48.80
2018-03-26T06:32:20.073Z,48.70
2018-03-26T06:34:46.785Z,50.00
2018-03-26T06:37:29.171Z,52.00
2018-03-26T06:39:55.908Z,50.95
2018-03-26T06:42:22.594Z,48.87
2018-03-26T06:44:49.279Z,48.22
2018-03-26T06:47:16.015Z,49.60
2018-03-26T06:49:42.716Z,51.95
2018-03-26T06:52:09.400Z,48.97
2018-03-26T06:54:36.120Z,49.00
2018-03-26T06:57:02.850Z,51.40
2018-03-26T06:59:29.541Z,51.47
2018-03-26T07:01:56.257Z,48.87
2018-03-26T07:04:22.980Z,49.58
2018-03-26T07:06:49.679Z,48.97
2018-03-26T07:09:16.385Z,47.10
2018-03-26T07:11:43.082Z,50.38
2018-03-26T07:14:09.794Z,51.42
2018-03-26T07:16:36.497Z,50.40
2018-03-26T07:19:03.209Z,49.25
2018-03-26T07:21:29.911Z,47.15
2018-03-26T07:23:56.600Z,49.37
2018-03-26T07:26:23.290Z,50.27
2018-03-26T07:28:49.979Z,51.17
2018-03-26T07:31:16.673Z,51.00
2018-03-26T07:33:43.361Z,49.17
2018-03-26T07:36:10.058Z,49.10
2018-03-26T07:38:36.791Z,52.20
2018-03-26T07:41:03.541Z,53.37
2018-03-26T07:43:30.245Z,51.03
2018-03-26T07:45:56.961Z,54.13
2018-03-26T07:48:23.726Z,55.13
2018-03-26T07:50:50.424Z,49.83
2018-03-26T07:53:17.170Z,51.93
2018-03-26T07:55:43.868Z,50.37
2018-03-26T07:58:10.582Z,46.30
2018-03-26T08:00:37.288Z,44.83
2018-03-26T08:03:03.993Z,46.27
2018-03-26T08:05:30.694Z,44.70
2018-03-26T08:07:57.400Z,46.00
2018-03-26T08:10:24.076Z,44.37
2018-03-26T08:12:50.785Z,44.40
2018-03-26T08:15:17.464Z,45.10
2018-03-26T08:17:44.145Z,41.70
2018-03-26T08:20:10.839Z,41.00
2018-03-26T08:22:37.540Z,42.67
2018-03-26T08:25:04.229Z,40.90
2018-03-26T08:27:30.928Z,38.30
2018-03-26T08:29:57.651Z,40.83
2018-03-26T08:32:24.366Z,39.90
2018-03-26T08:34:51.090Z,39.00
2018-03-26T08:37:17.794Z,39.13
2018-03-26T08:39:44.493Z,38.97
2018-03-26T08:42:11.217Z,35.83
2018-03-26T08:44:37.945Z,32.03
2018-03-26T08:47:04.654Z,34.63
2018-03-26T08:49:31.359Z,34.67
2018-03-26T08:51:58.065Z,33.83
2018-03-26T08:54:24.746Z,33.28
2018-03-26T08:56:51.458Z,37.20
2018-03-26T08:59:18.177Z,33.47
2018-03-26T09:01:44.868Z,37.70
2018-03-26T09:04:11.570Z,37.37
2018-03-26T09:06:38.280Z,36.70
2018-03-26T09:09:04.966Z,38.80
2018-03-26T09:11:31.713Z,34.77
2018-03-26T09:13:58.406Z,33.20
2018-03-26T09:16:25.104Z,35.30
2018-03-26T09:18:51.833Z,37.60
2018-03-26T09:21:18.549Z,31.77
2018-03-26T09:23:45.249Z,30.33
2018-03-26T09:26:11.957Z,31.20
2018-03-26T09:28:38.663Z,35.30
2018-03-26T09:31:05.355Z,32.30
2018-03-26T09:33:32.042Z,33.43
2018-03-26T09:35:58.738Z,36.57
2018-03-26T09:38:25.442Z,34.63
2018-03-26T09:40:52.187Z,34.30
2018-03-26T09:43:18.872Z,33.70
2018-03-26T09:45:45.593Z,34.37
2018-03-26T09:48:12.284Z,33.40
2018-03-26T09:50:39.000Z,33.67
2018-03-26T09:53:05.706Z,36.43
2018-03-26T09:55:32.413Z,32.60
2018-03-26T09:57:59.102Z,33.40
2018-03-26T10:00:31.506Z,33.40
2018-03-26T10:02:58.219Z,35.67
2018-03-26T10:05:24.969Z,36.00
2018-03-26T10:07:51.659Z,32.40
2018-03-26T10:10:18.417Z,34.87
2018-03-26T10:12:45.104Z,35.13
2018-03-26T10:15:11.790Z,34.73
2018-03-26T10:17:38.472Z,36.30
2018-03-26T10:20:05.217Z,34.43
2018-03-26T10:22:31.949Z,34.63
2018-03-26T10:24:58.669Z,33.83
2018-03-26T10:30:09.380Z,29.37
2018-03-26T10:32:36.117Z,29.80
2018-03-26T10:35:02.831Z,31.23
2018-03-26T10:37:29.542Z,33.73
2018-03-26T10:39:56.234Z,30.77
2018-03-26T10:42:22.939Z,26.90
2018-03-26T10:44:49.639Z,25.08
2018-03-26T10:47:16.350Z,26.92
2018-03-26T10:49:43.038Z,28.13
2018-03-26T10:52:09.755Z,28.17
2018-03-26T10:54:36.455Z,27.48
2018-03-26T10:57:03.203Z,25.80
2018-03-26T10:59:29.958Z,27.20
2018-03-26T11:01:56.666Z,25.45
2018-03-26T11:04:23.370Z,26.92
2018-03-26T11:06:50.096Z,26.45
2018-03-26T11:09:16.793Z,24.55
2018-03-26T11:11:43.491Z,21.52
2018-03-26T11:14:10.181Z,20.92
2018-03-26T11:16:36.937Z,19.65
2018-03-26T11:19:03.644Z,25.52
2018-03-26T11:21:30.354Z,23.10
2018-03-26T11:23:57.055Z,28.85
2018-03-26T11:26:23.766Z,27.90
2018-03-26T11:28:50.492Z,23.70
2018-03-26T11:31:17.188Z,22.70
2018-03-26T11:33:43.923Z,19.67
2018-03-26T11:36:10.672Z,22.27
2018-03-26T11:38:37.451Z,22.23
2018-03-26T11:41:04.247Z,21.40
2018-03-26T11:43:30.996Z,21.37
2018-03-26T11:45:57.788Z,22.13
2018-03-26T11:48:24.553Z,22.20
2018-03-26T11:50:51.316Z,20.65
2018-03-26T11:53:18.259Z,20.92
2018-03-26T11:55:44.995Z,20.55
2018-03-26T11:58:11.810Z,18.87
2018-03-26T12:00:38.540Z,21.83
2018-03-26T12:03:05.224Z,24.02
2018-03-26T12:05:31.921Z,20.37
2018-03-26T12:07:58.607Z,21.08
2018-03-26T12:10:25.317Z,19.35
2018-03-26T12:12:52.019Z,20.10
2018-03-26T12:15:18.718Z,20.67
2018-03-26T12:17:45.501Z,20.90
2018-03-26T12:20:18.094Z,20.27
2018-03-26T12:22:44.905Z,21.95
2018-03-26T12:25:14.402Z,19.15
2018-03-26T12:27:47.099Z,18.87
2018-03-26T12:30:24.661Z,18.27
2018-03-26T12:32:51.388Z,18.60
2018-03-26T12:35:23.867Z,17.25
2018-03-26T12:37:50.681Z,17.42
2018-03-26T12:40:23.420Z,15.75
2018-03-26T12:42:50.196Z,15.82
2018-03-26T12:45:22.906Z,17.35
2018-03-26T12:47:49.848Z,16.95
2018-03-26T12:50:16.603Z,16.00
2018-03-26T12:52:47.290Z,15.82
2018-03-26T12:55:14.058Z,13.82
2018-03-26T12:57:46.762Z,14.57
2018-03-26T13:00:13.579Z,14.52
2018-03-26T13:02:40.292Z,14.00
2018-03-26T13:05:06.982Z,13.43
2018-03-26T13:07:33.669Z,13.65
2018-03-26T13:10:00.381Z,14.93
2018-03-26T13:12:27.068Z,14.10
2018-03-26T13:14:53.772Z,13.85
2018-03-26T13:17:20.462Z,14.95
2018-03-26T13:19:47.259Z,15.02
2018-03-26T13:22:13.989Z,15.85
2018-03-26T13:24:40.694Z,15.70
2018-03-26T13:27:07.382Z,15.50
2018-03-26T13:29:34.069Z,15.13
2018-03-26T13:32:00.762Z,13.88
2018-03-26T13:34:27.473Z,14.73
2018-03-26T13:36:54.157Z,14.93
2018-03-26T13:39:20.847Z,15.35
2018-03-26T13:41:47.554Z,14.07
2018-03-26T13:44:14.274Z,13.85
2018-03-26T13:46:40.968Z,13.98
2018-03-26T13:49:07.714Z,14.85
2018-03-26T13:51:34.389Z,17.90
2018-03-26T13:54:01.084Z,18.50
2018-03-26T13:56:27.770Z,13.98
2018-03-26T13:58:54.464Z,14.85
2018-03-26T14:01:21.163Z,13.18
2018-03-26T14:03:47.864Z,14.50
2018-03-26T14:06:14.564Z,14.07
2018-03-26T14:08:47.050Z,13.05
2018-03-26T14:11:19.699Z,16.73
2018-03-26T14:13:52.372Z,14.38
2018-03-26T14:16:24.866Z,14.00
2018-03-26T14:18:51.567Z,15.65
2018-03-26T14:21:18.258Z,11.98
2018-03-26T14:23:44.957Z,14.45
2018-03-26T14:26:11.660Z,14.30
2018-03-26T14:28:38.363Z,14.10
2018-03-26T14:31:05.072Z,13.95
2018-03-26T14:33:31.825Z,13.90
2018-03-26T14:35:58.566Z,14.05
2018-03-26T14:38:25.345Z,14.13
2018-03-26T14:40:52.023Z,12.30
2018-03-26T14:43:18.704Z,13.00
2018-03-26T14:45:45.410Z,12.35
2018-03-26T14:48:12.146Z,12.00
2018-03-26T14:50:38.840Z,12.00
2018-03-26T14:53:05.536Z,12.27
2018-03-26T14:55:32.266Z,14.38
2018-03-26T14:57:58.970Z,12.40
2018-03-26T15:00:25.707Z,12.63
2018-03-26T15:02:52.455Z,11.50
2018-03-26T15:05:19.144Z,10.75
2018-03-26T15:07:45.864Z,11.25
2018-03-26T15:10:12.567Z,11.38
2018-03-26T15:12:39.276Z,10.63
2018-03-26T15:15:05.968Z,10.13
2018-03-26T15:17:32.764Z,11.52
2018-03-26T15:19:59.458Z,11.12
2018-03-26T15:22:26.190Z,11.95
2018-03-26T15:24:52.873Z,11.50
2018-03-26T15:27:19.591Z,11.23
2018-03-26T15:29:46.290Z,11.55
2018-03-26T15:32:13.015Z,11.73
2018-03-26T15:34:39.705Z,9.57
2018-03-26T15:37:06.432Z,10.95
2018-03-26T15:39:33.141Z,10.88
2018-03-26T15:41:59.839Z,10.38
2018-03-26T15:44:26.533Z,11.45
2018-03-26T15:46:53.249Z,11.25
2018-03-26T15:49:19.942Z,11.40
2018-03-26T15:51:46.661Z,10.95
2018-03-26T15:54:13.353Z,10.95
2018-03-26T15:56:40.048Z,11.55
2018-03-26T15:59:06.755Z,11.90
2018-03-26T16:01:33.481Z,12.95
2018-03-26T16:04:00.173Z,12.55
2018-03-26T16:06:26.862Z,13.27
2018-03-26T16:08:53.588Z,14.52
2018-03-26T16:11:20.311Z,12.93
2018-03-26T16:13:47.026Z,12.57
2018-03-26T16:16:13.742Z,13.88
2018-03-26T16:18:40.443Z,12.88
2018-03-26T16:21:07.159Z,12.50
2018-03-26T16:23:33.846Z,14.10
2018-03-26T16:26:00.530Z,14.38
2018-03-26T16:28:27.220Z,13.65
2018-03-26T16:30:53.955Z,14.27
2018-03-26T16:33:20.665Z,14.52
2018-03-26T16:35:47.401Z,13.73
2018-03-26T16:38:14.116Z,13.18
2018-03-26T16:40:40.857Z,13.52
2018-03-26T16:43:07.557Z,12.57
2018-03-26T16:45:34.254Z,13.05
2018-03-26T16:48:00.977Z,12.70
2018-03-26T16:50:27.665Z,14.02
2018-03-26T16:52:54.358Z,13.27
2018-03-26T16:55:21.077Z,12.70
2018-03-26T16:57:47.761Z,14.20
2018-03-26T17:00:14.462Z,14.65
2018-03-26T17:02:41.165Z,13.85
2018-03-26T17:05:07.866Z,13.50
2018-03-26T17:07:34.554Z,12.52
2018-03-26T17:10:01.247Z,12.65
2018-03-26T17:12:27.968Z,11.65
2018-03-26T17:14:54.652Z,12.63
2018-03-26T17:17:21.357Z,12.27
2018-03-26T17:19:48.081Z,10.35
2018-03-26T17:22:14.761Z,12.02
2018-03-26T17:24:41.454Z,12.13
2018-03-26T17:27:08.202Z,12.90
2018-03-26T17:29:34.897Z,12.60
2018-03-26T17:32:01.593Z,13.45
2018-03-26T17:34:28.299Z,14.80
2018-03-26T17:36:54.986Z,13.60
2018-03-26T17:39:21.903Z,13.50
2018-03-26T17:41:48.605Z,13.15
2018-03-26T17:44:15.329Z,13.15
2018-03-26T17:46:42.069Z,13.02
2018-03-26T17:49:08.797Z,13.05
2018-03-26T17:51:35.590Z,13.55
2018-03-26T17:54:02.335Z,11.38
2018-03-26T17:56:29.027Z,12.10
2018-03-26T17:58:55.723Z,12.80
2018-03-26T18:01:22.442Z,12.07
2018-03-26T18:03:49.133Z,12.23
2018-03-26T18:06:15.861Z,13.70
2018-03-26T18:08:43.525Z,14.07
2018-03-26T18:11:10.235Z,13.95
2018-03-26T18:13:36.943Z,13.80
2018-03-26T18:16:03.648Z,13.27
2018-03-26T18:18:30.346Z,12.18
2018-03-26T18:20:57.081Z,13.25
2018-03-26T18:23:23.843Z,13.68
2018-03-26T18:25:50.553Z,12.63
2018-03-26T18:28:17.267Z,15.43
2018-03-26T18:30:43.992Z,13.05
2018-03-26T18:33:10.731Z,14.35
2018-03-26T18:35:37.501Z,13.48
2018-03-26T18:38:04.201Z,14.57
2018-03-26T18:40:30.894Z,13.73
2018-03-26T18:42:57.590Z,13.32
2018-03-26T18:45:24.406Z,14.00
2018-03-26T18:47:51.113Z,13.23
2018-03-26T18:50:17.799Z,13.73
2018-03-26T18:52:44.505Z,14.50
2018-03-26T18:55:11.198Z,13.90
2018-03-26T18:57:37.893Z,14.10
2018-03-26T19:00:04.607Z,15.60
2018-03-26T19:02:31.338Z,16.12
2018-03-26T19:04:58.064Z,13.48
2018-03-26T19:07:24.776Z,14.25
2018-03-26T19:09:51.498Z,16.95
2018-03-26T19:12:18.193Z,16.95
2018-03-26T19:14:44.888Z,16.85
2018-03-26T19:17:11.590Z,15.25
2018-03-26T19:19:38.317Z,17.10
2018-03-26T19:22:05.014Z,17.05
2018-03-26T19:24:31.728Z,18.27
2018-03-26T19:26:58.431Z,17.42
2018-03-26T19:29:25.127Z,15.90
2018-03-26T19:31:51.839Z,16.15
2018-03-26T19:34:18.549Z,17.67
2018-03-26T19:36:45.288Z,17.30
2018-03-26T19:39:11.980Z,19.45
2018-03-26T19:41:38.718Z,17.90
2018-03-26T19:44:05.410Z,17.55
2018-03-26T19:46:32.118Z,18.98
2018-03-26T19:48:58.825Z,16.83
2018-03-26T19:51:25.541Z,16.83
2018-03-26T19:53:52.235Z,19.10
2018-03-26T19:56:18.927Z,17.60
2018-03-26T19:58:45.655Z,19.02
2018-03-26T20:01:12.342Z,17.85
2018-03-26T20:03:39.084Z,20.50
2018-03-26T20:06:05.793Z,18.52
2018-03-26T20:08:32.498Z,19.33
2018-03-26T20:10:59.198Z,20.17
2018-03-26T20:13:25.912Z,18.58
2018-03-26T20:15:52.682Z,21.05
2018-03-26T20:18:19.417Z,20.25
2018-03-26T20:20:46.155Z,20.73
2018-03-26T20:23:12.882Z,20.25
2018-03-26T20:25:39.612Z,20.25
2018-03-26T20:28:06.310Z,20.52
2018-03-26T20:30:33.013Z,20.67
2018-03-26T20:32:59.767Z,20.88
2018-03-26T20:35:26.477Z,20.88
2018-03-26T20:37:53.198Z,20.75
2018-03-26T20:40:19.904Z,17.98
2018-03-26T20:42:46.594Z,21.85
2018-03-26T20:45:13.299Z,21.73
2018-03-26T20:47:40.020Z,18.55
2018-03-26T20:50:06.727Z,21.23
2018-03-26T20:52:33.424Z,20.42
2018-03-26T20:55:00.126Z,21.67
2018-03-26T20:57:26.843Z,21.37
2018-03-26T20:59:53.536Z,20.83
2018-03-26T21:02:20.218Z,20.85
2018-03-26T21:04:46.918Z,21.42
2018-03-26T21:07:13.646Z,20.85
2018-03-26T21:09:40.363Z,22.45
2018-03-26T21:12:07.085Z,19.83
2018-03-26T21:14:33.810Z,21.85
2018-03-26T21:17:00.518Z,22.13
2018-03-26T21:19:27.222Z,22.27
2018-03-26T21:21:53.912Z,21.02
2018-03-26T21:24:20.598Z,18.83
2018-03-26T21:26:47.310Z,21.10
2018-03-26T21:29:14.010Z,21.25
2018-03-26T21:31:40.770Z,20.48
2018-03-26T21:34:07.470Z,22.25
2018-03-26T21:36:34.161Z,23.10
2018-03-26T21:39:00.852Z,21.87
2018-03-26T21:41:27.538Z,23.55
2018-03-26T21:43:54.255Z,21.35
2018-03-26T21:46:20.949Z,20.98
2018-03-26T21:48:47.667Z,22.67
2018-03-26T21:51:14.371Z,23.60
2018-03-26T21:53:41.088Z,23.38
2018-03-26T21:56:07.797Z,22.00
2018-03-26T21:58:34.497Z,22.62
2018-03-26T22:01:01.199Z,21.52
2018-03-26T22:03:27.891Z,22.37
2018-03-26T22:05:54.592Z,22.87
2018-03-26T22:08:21.305Z,22.35
2018-03-26T22:10:48.014Z,21.67
2018-03-26T22:13:14.774Z,24.48
2018-03-26T22:15:41.491Z,23.40
2018-03-26T22:18:08.187Z,24.00
2018-03-26T22:20:34.915Z,24.67
2018-03-26T22:23:01.595Z,25.27
2018-03-26T22:25:28.304Z,25.20
2018-03-26T22:27:55.003Z,25.15
2018-03-26T22:30:21.759Z,24.35
2018-03-26T22:32:48.460Z,23.02
2018-03-26T22:35:15.140Z,21.48
2018-03-26T22:37:41.855Z,24.60
2018-03-26T22:40:08.556Z,23.27
2018-03-26T22:42:35.280Z,22.30
2018-03-26T22:45:01.990Z,20.25
2018-03-26T22:47:28.692Z,21.55
2018-03-26T22:49:55.415Z,23.27
2018-03-26T22:52:22.116Z,24.35
2018-03-26T22:54:48.805Z,23.90
2018-03-26T22:57:16.339Z,24.65
2018-03-26T22:59:43.090Z,22.20
2018-03-26T23:02:09.786Z,21.90
2018-03-26T23:04:36.480Z,22.80
2018-03-26T23:07:03.183Z,21.00
2018-03-26T23:09:29.889Z,20.77
2018-03-26T23:11:56.594Z,21.10
2018-03-26T23:14:23.344Z,24.02
2018-03-26T23:16:50.048Z,23.70
2018-03-26T23:19:16.776Z,22.08
2018-03-26T23:21:43.456Z,23.83
2018-03-26T23:24:10.153Z,23.52
2018-03-26T23:26:36.838Z,23.38
2018-03-26T23:29:03.579Z,23.40
2018-03-26T23:31:30.266Z,22.77
2018-03-26T23:33:56.956Z,21.15
2018-03-26T23:36:23.706Z,20.55
2018-03-26T23:38:50.415Z,22.15
2018-03-26T23:41:17.146Z,22.77
2018-03-26T23:43:43.857Z,22.90
2018-03-26T23:46:10.549Z,21.27
2018-03-26T23:48:37.264Z,21.40
2018-03-26T23:51:03.967Z,22.77
2018-03-26T23:53:30.698Z,19.85
2018-03-26T23:55:57.398Z,20.12
2018-03-26T23:58:24.088Z,20.50
